createdAt,value
2023-04-16T17:54:07.191Z,7.00
2023-04-16T17:59:11.224Z,8.30
2023-04-16T18:04:15.460Z,7.30
2023-04-16T18:09:21.050Z,5.80
2023-04-16T18:14:25.564Z,10.30
2023-04-16T18:19:31.192Z,5.70
2023-04-16T18:24:36.293Z,8.50
2023-04-16T18:29:46.874Z,10.10
2023-04-16T18:34:51.309Z,8.30
2023-04-16T18:39:58.029Z,6.90
2023-04-16T18:45:02.416Z,8.20
2023-04-16T18:50:21.393Z,7.50
2023-04-16T18:55:29.765Z,8.30
2023-04-16T19:00:33.771Z,8.30
2023-04-16T19:05:44.387Z,10.40
2023-04-16T19:10:59.988Z,6.90
2023-04-16T19:16:19.632Z,11.80
2023-04-16T19:21:25.655Z,5.90
2023-04-16T19:26:32.407Z,5.70
2023-04-16T19:31:36.805Z,5.70
2023-04-16T19:36:40.677Z,10.30
2023-04-16T19:41:44.814Z,6.80
2023-04-16T19:46:49.282Z,6.50
2023-04-16T19:51:54.289Z,6.80
2023-04-16T19:56:59.386Z,4.30
2023-04-16T20:02:03.242Z,8.30
2023-04-16T20:07:07.212Z,6.80
2023-04-16T20:12:11.168Z,8.50
2023-04-16T20:17:18.940Z,11.10
2023-04-16T20:22:22.707Z,5.30
2023-04-16T20:27:31.191Z,6.00
2023-04-16T20:32:34.894Z,8.40
2023-04-16T20:37:42.974Z,10.60
2023-04-16T20:42:47.314Z,6.20
2023-04-16T20:47:52.020Z,9.50
2023-04-16T20:52:58.458Z,9.60
2023-04-16T20:58:02.902Z,10.00
2023-04-16T21:03:07.089Z,16.10
2023-04-16T21:08:15.355Z,10.20
2023-04-16T21:13:21.150Z,11.40
2023-04-16T21:18:24.733Z,10.40
2023-04-16T21:23:28.466Z,9.50
2023-04-16T21:28:32.390Z,14.20
2023-04-16T21:33:36.233Z,14.70
2023-04-16T21:38:40.284Z,12.90
2023-04-16T21:43:44.063Z,22.90
2023-04-16T21:48:51.100Z,15.20
2023-04-16T21:53:55.315Z,15.20
2023-04-16T21:58:59.085Z,19.50
2023-04-16T22:04:03.330Z,12.60
2023-04-16T22:09:07.453Z,19.90
2023-04-16T22:14:11.421Z,18.00
2023-04-16T22:19:15.183Z,20.20
2023-04-16T22:24:19.052Z,19.90
2023-04-16T22:29:22.725Z,16.40
2023-04-16T22:34:26.747Z,19.30
2023-04-16T22:39:31.078Z,17.80
2023-04-16T22:44:35.796Z,18.20
2023-04-16T22:49:39.414Z,16.50
2023-04-16T22:54:44.530Z,31.60
2023-04-16T22:59:48.224Z,17.60
2023-04-16T23:04:52.030Z,17.40
2023-04-16T23:09:55.769Z,18.60
2023-04-16T23:15:00.317Z,15.50
2023-04-16T23:20:06.927Z,19.70
2023-04-16T23:25:11.155Z,17.00
2023-04-16T23:30:15.522Z,16.00
2023-04-16T23:35:39.173Z,17.70
2023-04-16T23:40:42.869Z,14.40
2023-04-16T23:45:46.684Z,16.40
2023-04-16T23:50:50.331Z,16.70
2023-04-16T23:55:54.183Z,13.90
